Hauptseite
METAR-TAF:

METAR-TAF

Flughäfen :

Athen, Griechenland

Eleftherios-Venizelos-Flughafen Athen

Breite: 37-56N, Länge: 023-56E, Höhe: 94 m

Beobachtung

Neuester Wetterbericht von vor 28 Minuten, um 15:20 UTC
Wind 7 kt aus Ost
Temperatur 32°C
Luftfeuchtigkeit 29%
Luftdruck 1011 hPa
Sichtweite 10 km oder mehr
keine Wolken unter 1500 m und keine Kumulonimbus oder Gewitterwolken

METAR: LGAV 271520Z 10007KT CAVOK 32/12 Q1011 NOSIG

Zeit: 18:48 (15:48 UTC)

Prognose

Neuester Wetterbericht von vor 4 Stunden und 48 Minuten, um 11:00 UTC
Gültige Prognose vom 27 um 12 UTC bis 28 um 12 UTC
Wind 10 kt aus Ost
Sichtweite 10 km oder mehr
Leicht bewölkt in der Höhe von 2000 ft
Übergehend zu
vom 27 um 16 UTC bis 27 um 18 UTC
Wind 3 kt aus unterschiedlichen Richtungen
Übergehend zu
vom 28 um 07 UTC bis 28 um 09 UTC
Wind 10 kt aus Ost

TAF: LGAV 271100Z 2712/2812 10010KT 9999 FEW020 BECMG 2716/2718 VRB03KT BECMG 2807/2809 10010KT

Wetterbeobachtungen und Prognosen von mehr als 4000 Flughäfen (METAR und TAF Bericht).

Die verfügbaren Stationen werden durch gelbe und rote Markierungen auf der Karte dargestellt.

Führen Sie die Maus auf sie, um den Namen der Station zu sehen.

Darauf klicken, um die Beobachtung von Wetterbeobachtungen und Prognosen zu sehen.

Um die Karte zu ändern : klicken Sie auf den grünen Tasten mit einem schwarzen Kreuz Zum Vergrößern, auf den grünen Button mit einem Gedankenstrich zu verkleinern, oder auf die grünen Pfeile für benachbarte Karten.


METAR-TAF: